sensor_id;sensor_type;location;lat;lon;timestamp;temperature;humidity
21459;DHT22;10891;49.350;19.386;2022-08-03T00:02:09;12.10;99.90
21459;DHT22;10891;49.350;19.386;2022-08-03T00:04:36;12.10;99.90
21459;DHT22;10891;49.350;19.386;2022-08-03T00:07:05;12.10;99.90
21459;DHT22;10891;49.350;19.386;2022-08-03T00:09:32;12.00;99.90
21459;DHT22;10891;49.350;19.386;2022-08-03T00:11:59;12.10;99.90
21459;DHT22;10891;49.350;19.386;2022-08-03T00:14:25;12.00;99.90
21459;DHT22;10891;49.350;19.386;2022-08-03T00:16:52;12.00;99.90
21459;DHT22;10891;49.350;19.386;2022-08-03T00:19:19;11.90;99.90
21459;DHT22;10891;49.350;19.386;2022-08-03T00:21:46;11.90;99.90
21459;DHT22;10891;49.350;19.386;2022-08-03T00:24:14;11.90;99.90
21459;DHT22;10891;49.350;19.386;2022-08-03T00:26:41;12.00;99.90
21459;DHT22;10891;49.350;19.386;2022-08-03T00:29:08;12.00;99.90
21459;DHT22;10891;49.350;19.386;2022-08-03T00:31:35;12.00;99.90
21459;DHT22;10891;49.350;19.386;2022-08-03T00:34:02;11.90;99.90
21459;DHT22;10891;49.350;19.386;2022-08-03T00:36:29;11.90;99.90
21459;DHT22;10891;49.350;19.386;2022-08-03T00:38:56;12.00;99.90
21459;DHT22;10891;49.350;19.386;2022-08-03T00:41:25;11.90;99.90
21459;DHT22;10891;49.350;19.386;2022-08-03T00:43:52;11.90;99.90
21459;DHT22;10891;49.350;19.386;2022-08-03T00:46:18;11.80;99.90
21459;DHT22;10891;49.350;19.386;2022-08-03T00:48:46;11.80;99.90
21459;DHT22;10891;49.350;19.386;2022-08-03T00:51:13;11.80;99.90
21459;DHT22;10891;49.350;19.386;2022-08-03T00:53:40;11.80;99.90
21459;DHT22;10891;49.350;19.386;2022-08-03T00:56:07;11.80;99.90
21459;DHT22;10891;49.350;19.386;2022-08-03T00:58:36;11.70;99.90
21459;DHT22;10891;49.350;19.386;2022-08-03T01:01:03;11.60;99.90
21459;DHT22;10891;49.350;19.386;2022-08-03T01:03:31;11.60;99.90
21459;DHT22;10891;49.350;19.386;2022-08-03T01:06:04;11.60;99.90
21459;DHT22;10891;49.350;19.386;2022-08-03T01:08:40;11.50;99.90
21459;DHT22;10891;49.350;19.386;2022-08-03T01:11:16;11.60;99.90
21459;DHT22;10891;49.350;19.386;2022-08-03T01:13:52;11.50;99.90
21459;DHT22;10891;49.350;19.386;2022-08-03T01:16:25;11.50;99.90
21459;DHT22;10891;49.350;19.386;2022-08-03T01:18:57;11.40;99.90
21459;DHT22;10891;49.350;19.386;2022-08-03T01:21:27;11.40;99.90
21459;DHT22;10891;49.350;19.386;2022-08-03T01:24:17;11.50;99.90
21459;DHT22;10891;49.350;19.386;2022-08-03T01:26:58;11.50;99.90
21459;DHT22;10891;49.350;19.386;2022-08-03T01:29:51;11.50;99.90
21459;DHT22;10891;49.350;19.386;2022-08-03T01:32:27;11.50;99.90
21459;DHT22;10891;49.350;19.386;2022-08-03T01:35:01;11.60;99.90
21459;DHT22;10891;49.350;19.386;2022-08-03T01:37:34;11.70;99.90
21459;DHT22;10891;49.350;19.386;2022-08-03T01:40:04;11.70;99.90
21459;DHT22;10891;49.350;19.386;2022-08-03T01:42:32;11.70;99.90
21459;DHT22;10891;49.350;19.386;2022-08-03T01:45:02;11.60;99.90
21459;DHT22;10891;49.350;19.386;2022-08-03T01:47:31;11.60;99.90
21459;DHT22;10891;49.350;19.386;2022-08-03T01:49:59;11.50;99.90
21459;DHT22;10891;49.350;19.386;2022-08-03T01:52:28;11.40;99.90
21459;DHT22;10891;49.350;19.386;2022-08-03T01:54:57;11.40;99.90
21459;DHT22;10891;49.350;19.386;2022-08-03T01:57:28;11.30;99.90
21459;DHT22;10891;49.350;19.386;2022-08-03T01:59:56;11.20;99.90
21459;DHT22;10891;49.350;19.386;2022-08-03T02:02:27;11.10;99.90
21459;DHT22;10891;49.350;19.386;2022-08-03T02:04:55;11.00;99.90
21459;DHT22;10891;49.350;19.386;2022-08-03T02:07:23;10.90;99.90
21459;DHT22;10891;49.350;19.386;2022-08-03T02:09:52;10.90;99.90
21459;DHT22;10891;49.350;19.386;2022-08-03T02:12:23;10.90;99.90
21459;DHT22;10891;49.350;19.386;2022-08-03T02:14:51;10.90;99.90
21459;DHT22;10891;49.350;19.386;2022-08-03T02:17:20;10.90;99.90
21459;DHT22;10891;49.350;19.386;2022-08-03T02:19:50;10.90;99.90
21459;DHT22;10891;49.350;19.386;2022-08-03T02:22:17;10.90;99.90
21459;DHT22;10891;49.350;19.386;2022-08-03T02:24:44;10.90;99.90
21459;DHT22;10891;49.350;19.386;2022-08-03T02:27:17;10.80;99.90
21459;DHT22;10891;49.350;19.386;2022-08-03T02:29:48;10.80;99.90
21459;DHT22;10891;49.350;19.386;2022-08-03T02:32:19;10.80;99.90
21459;DHT22;10891;49.350;19.386;2022-08-03T02:34:52;10.80;99.90
21459;DHT22;10891;49.350;19.386;2022-08-03T02:37:20;10.90;99.90
21459;DHT22;10891;49.350;19.386;2022-08-03T02:39:53;10.90;99.90
21459;DHT22;10891;49.350;19.386;2022-08-03T02:42:24;11.00;99.90
21459;DHT22;10891;49.350;19.386;2022-08-03T02:44:54;11.10;99.90
21459;DHT22;10891;49.350;19.386;2022-08-03T02:47:22;11.20;99.90
21459;DHT22;10891;49.350;19.386;2022-08-03T02:49:53;11.20;99.90
21459;DHT22;10891;49.350;19.386;2022-08-03T02:52:23;11.20;99.90
21459;DHT22;10891;49.350;19.386;2022-08-03T02:54:54;11.20;99.90
21459;DHT22;10891;49.350;19.386;2022-08-03T02:57:22;11.20;99.90
21459;DHT22;10891;49.350;19.386;2022-08-03T02:59:51;11.20;99.90
21459;DHT22;10891;49.350;19.386;2022-08-03T03:02:19;11.30;99.90
21459;DHT22;10891;49.350;19.386;2022-08-03T03:04:49;11.40;99.90
21459;DHT22;10891;49.350;19.386;2022-08-03T03:07:19;11.50;99.90
21459;DHT22;10891;49.350;19.386;2022-08-03T03:09:46;11.60;99.90
21459;DHT22;10891;49.350;19.386;2022-08-03T03:12:13;11.60;99.90
21459;DHT22;10891;49.350;19.386;2022-08-03T03:14:41;11.60;99.90
21459;DHT22;10891;49.350;19.386;2022-08-03T03:17:09;11.70;99.90
21459;DHT22;10891;49.350;19.386;2022-08-03T03:19:38;11.70;99.90
21459;DHT22;10891;49.350;19.386;2022-08-03T03:22:07;11.60;99.90
21459;DHT22;10891;49.350;19.386;2022-08-03T03:24:37;11.60;99.90
21459;DHT22;10891;49.350;19.386;2022-08-03T03:27:05;11.70;99.90
21459;DHT22;10891;49.350;19.386;2022-08-03T03:29:32;11.70;99.90
21459;DHT22;10891;49.350;19.386;2022-08-03T03:32:00;11.80;99.90
21459;DHT22;10891;49.350;19.386;2022-08-03T03:34:28;11.80;99.90
21459;DHT22;10891;49.350;19.386;2022-08-03T03:36:56;11.70;99.90
21459;DHT22;10891;49.350;19.386;2022-08-03T03:39:23;11.60;99.90
21459;DHT22;10891;49.350;19.386;2022-08-03T03:41:51;11.60;99.90
21459;DHT22;10891;49.350;19.386;2022-08-03T03:44:18;11.50;99.90
21459;DHT22;10891;49.350;19.386;2022-08-03T03:46:45;11.50;99.90
21459;DHT22;10891;49.350;19.386;2022-08-03T03:49:12;11.60;99.90
21459;DHT22;10891;49.350;19.386;2022-08-03T03:51:38;11.70;99.90
21459;DHT22;10891;49.350;19.386;2022-08-03T03:54:05;11.80;99.90
21459;DHT22;10891;49.350;19.386;2022-08-03T03:56:32;11.90;99.90
21459;DHT22;10891;49.350;19.386;2022-08-03T03:59:00;12.10;99.90
21459;DHT22;10891;49.350;19.386;2022-08-03T04:01:27;12.10;99.90
21459;DHT22;10891;49.350;19.386;2022-08-03T04:03:54;12.30;99.90
21459;DHT22;10891;49.350;19.386;2022-08-03T04:06:21;12.40;99.90
21459;DHT22;10891;49.350;19.386;2022-08-03T04:09:07;12.50;99.90
21459;DHT22;10891;49.350;19.386;2022-08-03T04:11:55;12.50;99.90
21459;DHT22;10891;49.350;19.386;2022-08-03T04:14:27;12.50;99.90
21459;DHT22;10891;49.350;19.386;2022-08-03T04:16:58;12.60;99.90
21459;DHT22;10891;49.350;19.386;2022-08-03T04:19:29;12.70;99.90
21459;DHT22;10891;49.350;19.386;2022-08-03T04:22:03;12.80;99.90
21459;DHT22;10891;49.350;19.386;2022-08-03T04:24:34;12.90;99.90
21459;DHT22;10891;49.350;19.386;2022-08-03T04:27:06;12.90;99.90
21459;DHT22;10891;49.350;19.386;2022-08-03T04:29:36;13.10;99.90
21459;DHT22;10891;49.350;19.386;2022-08-03T04:32:05;13.30;99.90
21459;DHT22;10891;49.350;19.386;2022-08-03T04:34:33;13.40;99.90
21459;DHT22;10891;49.350;19.386;2022-08-03T04:37:07;13.60;99.90
21459;DHT22;10891;49.350;19.386;2022-08-03T04:39:37;13.60;99.90
21459;DHT22;10891;49.350;19.386;2022-08-03T04:42:06;13.70;99.90
21459;DHT22;10891;49.350;19.386;2022-08-03T04:44:38;13.60;99.90
21459;DHT22;10891;49.350;19.386;2022-08-03T04:47:06;13.60;99.90
21459;DHT22;10891;49.350;19.386;2022-08-03T04:49:35;13.60;99.90
21459;DHT22;10891;49.350;19.386;2022-08-03T04:52:03;13.70;99.90
21459;DHT22;10891;49.350;19.386;2022-08-03T04:54:38;13.70;99.90
21459;DHT22;10891;49.350;19.386;2022-08-03T04:57:05;13.80;99.90
21459;DHT22;10891;49.350;19.386;2022-08-03T04:59:33;13.90;99.90
21459;DHT22;10891;49.350;19.386;2022-08-03T05:02:01;14.00;99.90
21459;DHT22;10891;49.350;19.386;2022-08-03T05:04:28;14.10;99.90
21459;DHT22;10891;49.350;19.386;2022-08-03T05:06:55;14.50;99.90
21459;DHT22;10891;49.350;19.386;2022-08-03T05:09:22;14.70;99.90
21459;DHT22;10891;49.350;19.386;2022-08-03T05:11:49;14.70;99.90
21459;DHT22;10891;49.350;19.386;2022-08-03T05:14:15;15.00;99.90
21459;DHT22;10891;49.350;19.386;2022-08-03T05:16:42;15.40;99.90
21459;DHT22;10891;49.350;19.386;2022-08-03T05:19:10;15.70;99.90
21459;DHT22;10891;49.350;19.386;2022-08-03T05:21:38;16.10;99.90
21459;DHT22;10891;49.350;19.386;2022-08-03T05:24:05;16.50;99.90
21459;DHT22;10891;49.350;19.386;2022-08-03T05:26:31;17.00;99.90
21459;DHT22;10891;49.350;19.386;2022-08-03T05:28:58;17.50;99.90
21459;DHT22;10891;49.350;19.386;2022-08-03T05:31:25;17.90;99.90
21459;DHT22;10891;49.350;19.386;2022-08-03T05:33:52;18.70;99.90
21459;DHT22;10891;49.350;19.386;2022-08-03T05:36:21;19.40;99.90
21459;DHT22;10891;49.350;19.386;2022-08-03T05:38:48;20.80;99.90
21459;DHT22;10891;49.350;19.386;2022-08-03T05:41:15;22.00;99.90
21459;DHT22;10891;49.350;19.386;2022-08-03T05:43:42;23.00;99.90
21459;DHT22;10891;49.350;19.386;2022-08-03T05:46:09;24.10;98.90
21459;DHT22;10891;49.350;19.386;2022-08-03T05:48:36;24.90;97.20
21459;DHT22;10891;49.350;19.386;2022-08-03T05:51:03;25.60;95.70
21459;DHT22;10891;49.350;19.386;2022-08-03T05:53:33;25.30;95.40
21459;DHT22;10891;49.350;19.386;2022-08-03T05:56:00;25.50;95.30
21459;DHT22;10891;49.350;19.386;2022-08-03T05:58:28;26.20;94.50
21459;DHT22;10891;49.350;19.386;2022-08-03T06:00:54;26.80;93.50
21459;DHT22;10891;49.350;19.386;2022-08-03T06:03:21;26.50;92.90
21459;DHT22;10891;49.350;19.386;2022-08-03T06:05:48;26.50;93.40
21459;DHT22;10891;49.350;19.386;2022-08-03T06:08:15;26.90;93.10
21459;DHT22;10891;49.350;19.386;2022-08-03T06:10:43;27.10;93.30
21459;DHT22;10891;49.350;19.386;2022-08-03T06:13:10;27.80;92.70
21459;DHT22;10891;49.350;19.386;2022-08-03T06:15:37;28.20;91.90
21459;DHT22;10891;49.350;19.386;2022-08-03T06:18:04;28.70;91.50
21459;DHT22;10891;49.350;19.386;2022-08-03T06:20:32;29.00;90.80
21459;DHT22;10891;49.350;19.386;2022-08-03T06:22:59;29.00;90.70
21459;DHT22;10891;49.350;19.386;2022-08-03T06:25:26;29.20;90.50
21459;DHT22;10891;49.350;19.386;2022-08-03T06:27:54;29.30;90.10
21459;DHT22;10891;49.350;19.386;2022-08-03T06:30:21;29.40;90.40
21459;DHT22;10891;49.350;19.386;2022-08-03T06:32:48;29.50;90.00
21459;DHT22;10891;49.350;19.386;2022-08-03T06:35:15;29.40;90.40
21459;DHT22;10891;49.350;19.386;2022-08-03T06:37:42;29.30;90.00
21459;DHT22;10891;49.350;19.386;2022-08-03T06:40:11;29.50;90.40
21459;DHT22;10891;49.350;19.386;2022-08-03T06:42:39;29.90;90.30
21459;DHT22;10891;49.350;19.386;2022-08-03T06:45:08;29.20;90.30
21459;DHT22;10891;49.350;19.386;2022-08-03T06:47:35;28.50;91.00
21459;DHT22;10891;49.350;19.386;2022-08-03T06:50:02;28.60;91.50
21459;DHT22;10891;49.350;19.386;2022-08-03T06:52:29;28.70;91.10
21459;DHT22;10891;49.350;19.386;2022-08-03T06:54:56;28.60;90.70
21459;DHT22;10891;49.350;19.386;2022-08-03T06:57:23;26.80;92.90
21459;DHT22;10891;49.350;19.386;2022-08-03T06:59:50;24.90;95.10
21459;DHT22;10891;49.350;19.386;2022-08-03T07:02:19;24.10;96.40
21459;DHT22;10891;49.350;19.386;2022-08-03T07:04:46;23.70;97.40
21459;DHT22;10891;49.350;19.386;2022-08-03T07:07:13;23.60;98.30
21459;DHT22;10891;49.350;19.386;2022-08-03T07:09:40;23.20;99.10
21459;DHT22;10891;49.350;19.386;2022-08-03T07:12:07;23.70;98.80
21459;DHT22;10891;49.350;19.386;2022-08-03T07:14:34;24.10;98.00
21459;DHT22;10891;49.350;19.386;2022-08-03T07:17:00;24.20;98.10
21459;DHT22;10891;49.350;19.386;2022-08-03T07:19:29;24.20;97.60
21459;DHT22;10891;49.350;19.386;2022-08-03T07:21:56;25.10;97.30
21459;DHT22;10891;49.350;19.386;2022-08-03T07:24:23;25.30;96.70
21459;DHT22;10891;49.350;19.386;2022-08-03T07:26:50;25.10;96.30
21459;DHT22;10891;49.350;19.386;2022-08-03T07:29:17;25.40;96.40
21459;DHT22;10891;49.350;19.386;2022-08-03T07:31:44;25.80;96.00
21459;DHT22;10891;49.350;19.386;2022-08-03T07:34:10;25.80;96.00
21459;DHT22;10891;49.350;19.386;2022-08-03T07:36:39;25.20;95.90
21459;DHT22;10891;49.350;19.386;2022-08-03T07:39:06;24.70;96.60
21459;DHT22;10891;49.350;19.386;2022-08-03T07:41:32;24.90;97.30
21459;DHT22;10891;49.350;19.386;2022-08-03T07:43:59;25.30;97.00
21459;DHT22;10891;49.350;19.386;2022-08-03T07:46:26;25.30;96.90
21459;DHT22;10891;49.350;19.386;2022-08-03T07:48:53;25.00;97.80
21459;DHT22;10891;49.350;19.386;2022-08-03T07:51:20;25.10;96.70
21459;DHT22;10891;49.350;19.386;2022-08-03T07:53:48;24.20;97.40
21459;DHT22;10891;49.350;19.386;2022-08-03T07:56:15;23.80;99.00
21459;DHT22;10891;49.350;19.386;2022-08-03T07:58:42;23.10;99.70
21459;DHT22;10891;49.350;19.386;2022-08-03T08:01:09;23.00;99.90
21459;DHT22;10891;49.350;19.386;2022-08-03T08:03:36;22.90;99.60
21459;DHT22;10891;49.350;19.386;2022-08-03T08:06:03;23.00;99.30
21459;DHT22;10891;49.350;19.386;2022-08-03T08:08:30;23.20;99.70
21459;DHT22;10891;49.350;19.386;2022-08-03T08:10:59;22.90;96.80
21459;DHT22;10891;49.350;19.386;2022-08-03T08:13:26;22.80;96.70
21459;DHT22;10891;49.350;19.386;2022-08-03T08:15:53;22.90;96.20
21459;DHT22;10891;49.350;19.386;2022-08-03T08:18:20;23.30;96.50
21459;DHT22;10891;49.350;19.386;2022-08-03T08:20:48;23.10;95.10
21459;DHT22;10891;49.350;19.386;2022-08-03T08:23:16;23.00;96.20
21459;DHT22;10891;49.350;19.386;2022-08-03T08:25:47;23.00;96.30
21459;DHT22;10891;49.350;19.386;2022-08-03T08:28:18;23.00;95.50
21459;DHT22;10891;49.350;19.386;2022-08-03T08:30:45;23.30;97.10
21459;DHT22;10891;49.350;19.386;2022-08-03T08:33:12;23.30;97.40
21459;DHT22;10891;49.350;19.386;2022-08-03T08:35:40;23.40;97.20
21459;DHT22;10891;49.350;19.386;2022-08-03T08:38:07;23.40;96.10
21459;DHT22;10891;49.350;19.386;2022-08-03T08:40:34;23.40;96.10
21459;DHT22;10891;49.350;19.386;2022-08-03T08:43:01;23.20;95.80
21459;DHT22;10891;49.350;19.386;2022-08-03T08:45:30;23.00;95.40
21459;DHT22;10891;49.350;19.386;2022-08-03T08:48:00;23.40;95.60
21459;DHT22;10891;49.350;19.386;2022-08-03T08:50:29;23.50;95.50
21459;DHT22;10891;49.350;19.386;2022-08-03T08:52:59;23.40;95.10
21459;DHT22;10891;49.350;19.386;2022-08-03T08:55:28;23.30;94.30
21459;DHT22;10891;49.350;19.386;2022-08-03T08:58:00;23.30;94.80
21459;DHT22;10891;49.350;19.386;2022-08-03T09:00:27;23.60;95.40
21459;DHT22;10891;49.350;19.386;2022-08-03T09:02:57;23.60;95.00
21459;DHT22;10891;49.350;19.386;2022-08-03T09:05:24;23.60;94.70
21459;DHT22;10891;49.350;19.386;2022-08-03T09:07:52;23.30;94.80
21459;DHT22;10891;49.350;19.386;2022-08-03T09:10:19;23.20;94.20
21459;DHT22;10891;49.350;19.386;2022-08-03T09:12:48;23.40;94.70
21459;DHT22;10891;49.350;19.386;2022-08-03T09:15:21;23.40;93.60
21459;DHT22;10891;49.350;19.386;2022-08-03T09:17:49;23.40;94.50
21459;DHT22;10891;49.350;19.386;2022-08-03T09:20:19;23.30;93.40
21459;DHT22;10891;49.350;19.386;2022-08-03T09:22:57;23.50;93.50
21459;DHT22;10891;49.350;19.386;2022-08-03T09:25:29;23.60;92.60
21459;DHT22;10891;49.350;19.386;2022-08-03T09:28:04;23.50;92.50
21459;DHT22;10891;49.350;19.386;2022-08-03T09:30:32;23.50;91.40
21459;DHT22;10891;49.350;19.386;2022-08-03T09:32:59;23.50;91.90
21459;DHT22;10891;49.350;19.386;2022-08-03T09:35:28;23.60;91.80
21459;DHT22;10891;49.350;19.386;2022-08-03T09:38:08;23.70;90.50
21459;DHT22;10891;49.350;19.386;2022-08-03T09:40:36;24.00;90.80
21459;DHT22;10891;49.350;19.386;2022-08-03T09:43:03;24.00;92.10
21459;DHT22;10891;49.350;19.386;2022-08-03T09:45:32;24.00;91.50
21459;DHT22;10891;49.350;19.386;2022-08-03T09:48:19;24.30;92.30
21459;DHT22;10891;49.350;19.386;2022-08-03T09:50:52;24.50;92.60
21459;DHT22;10891;49.350;19.386;2022-08-03T09:53:19;24.60;91.90
21459;DHT22;10891;49.350;19.386;2022-08-03T09:55:51;24.40;92.00
21459;DHT22;10891;49.350;19.386;2022-08-03T09:58:19;24.40;90.40
21459;DHT22;10891;49.350;19.386;2022-08-03T10:00:55;24.60;91.40
21459;DHT22;10891;49.350;19.386;2022-08-03T10:03:24;24.60;90.10
21459;DHT22;10891;49.350;19.386;2022-08-03T10:05:53;24.60;91.80
21459;DHT22;10891;49.350;19.386;2022-08-03T10:08:20;24.60;89.70
21459;DHT22;10891;49.350;19.386;2022-08-03T10:10:49;24.60;89.00
21459;DHT22;10891;49.350;19.386;2022-08-03T10:13:19;24.70;89.80
21459;DHT22;10891;49.350;19.386;2022-08-03T10:15:47;24.70;90.60
21459;DHT22;10891;49.350;19.386;2022-08-03T10:18:14;24.90;89.40
21459;DHT22;10891;49.350;19.386;2022-08-03T10:20:44;25.20;90.20
21459;DHT22;10891;49.350;19.386;2022-08-03T10:23:15;25.60;89.70
21459;DHT22;10891;49.350;19.386;2022-08-03T10:25:43;26.00;88.50
21459;DHT22;10891;49.350;19.386;2022-08-03T10:28:15;26.10;87.00
21459;DHT22;10891;49.350;19.386;2022-08-03T10:30:47;26.10;86.40
21459;DHT22;10891;49.350;19.386;2022-08-03T10:33:17;26.10;86.20
21459;DHT22;10891;49.350;19.386;2022-08-03T10:35:46;26.00;86.00
21459;DHT22;10891;49.350;19.386;2022-08-03T10:38:18;26.10;87.00
21459;DHT22;10891;49.350;19.386;2022-08-03T10:40:46;26.00;86.50
21459;DHT22;10891;49.350;19.386;2022-08-03T10:43:18;26.10;87.50
21459;DHT22;10891;49.350;19.386;2022-08-03T10:45:48;26.20;88.10
21459;DHT22;10891;49.350;19.386;2022-08-03T10:48:16;26.10;88.50
21459;DHT22;10891;49.350;19.386;2022-08-03T10:50:44;26.10;88.80
21459;DHT22;10891;49.350;19.386;2022-08-03T10:53:11;26.20;87.90
21459;DHT22;10891;49.350;19.386;2022-08-03T10:55:41;26.10;88.30
21459;DHT22;10891;49.350;19.386;2022-08-03T10:58:50;26.00;87.80
21459;DHT22;10891;49.350;19.386;2022-08-03T11:01:18;26.00;87.80
21459;DHT22;10891;49.350;19.386;2022-08-03T11:04:14;25.80;85.40
21459;DHT22;10891;49.350;19.386;2022-08-03T11:06:41;25.60;86.50
21459;DHT22;10891;49.350;19.386;2022-08-03T11:09:17;25.70;87.30
21459;DHT22;10891;49.350;19.386;2022-08-03T11:11:46;25.60;85.10
21459;DHT22;10891;49.350;19.386;2022-08-03T11:14:17;25.80;86.70
21459;DHT22;10891;49.350;19.386;2022-08-03T11:16:46;26.10;86.10
21459;DHT22;10891;49.350;19.386;2022-08-03T11:19:15;26.20;85.90
21459;DHT22;10891;49.350;19.386;2022-08-03T11:21:54;26.30;86.80
21459;DHT22;10891;49.350;19.386;2022-08-03T11:27:16;26.40;84.00
21459;DHT22;10891;49.350;19.386;2022-08-03T11:29:53;26.50;84.00
21459;DHT22;10891;49.350;19.386;2022-08-03T11:32:52;26.50;85.00
21459;DHT22;10891;49.350;19.386;2022-08-03T11:35:22;26.30;82.70
21459;DHT22;10891;49.350;19.386;2022-08-03T11:38:06;26.30;82.70
21459;DHT22;10891;49.350;19.386;2022-08-03T11:40:39;26.40;82.10
21459;DHT22;10891;49.350;19.386;2022-08-03T11:43:09;26.30;84.00
21459;DHT22;10891;49.350;19.386;2022-08-03T11:45:36;26.50;83.20
21459;DHT22;10891;49.350;19.386;2022-08-03T11:48:13;26.60;81.40
21459;DHT22;10891;49.350;19.386;2022-08-03T11:50:41;26.70;82.20
21459;DHT22;10891;49.350;19.386;2022-08-03T11:53:14;26.70;83.00
21459;DHT22;10891;49.350;19.386;2022-08-03T11:55:42;26.70;83.40
21459;DHT22;10891;49.350;19.386;2022-08-03T11:58:19;26.70;86.00
21459;DHT22;10891;49.350;19.386;2022-08-03T12:00:47;26.80;84.20
21459;DHT22;10891;49.350;19.386;2022-08-03T12:03:17;26.90;84.30
21459;DHT22;10891;49.350;19.386;2022-08-03T12:05:46;26.70;82.70
21459;DHT22;10891;49.350;19.386;2022-08-03T12:08:15;26.40;82.60
21459;DHT22;10891;49.350;19.386;2022-08-03T12:10:48;26.70;83.50
21459;DHT22;10891;49.350;19.386;2022-08-03T12:13:16;26.60;83.60
21459;DHT22;10891;49.350;19.386;2022-08-03T12:15:50;26.80;82.60
21459;DHT22;10891;49.350;19.386;2022-08-03T12:18:18;26.90;84.30
21459;DHT22;10891;49.350;19.386;2022-08-03T12:20:47;27.10;83.40
21459;DHT22;10891;49.350;19.386;2022-08-03T12:23:14;27.10;80.90
21459;DHT22;10891;49.350;19.386;2022-08-03T12:25:42;27.40;81.60
21459;DHT22;10891;49.350;19.386;2022-08-03T12:28:15;27.50;82.90
21459;DHT22;10891;49.350;19.386;2022-08-03T12:30:47;27.50;80.40
21459;DHT22;10891;49.350;19.386;2022-08-03T12:33:16;27.50;80.60
21459;DHT22;10891;49.350;19.386;2022-08-03T12:35:45;27.70;81.60
21459;DHT22;10891;49.350;19.386;2022-08-03T12:38:12;27.80;81.00
21459;DHT22;10891;49.350;19.386;2022-08-03T12:40:40;27.90;81.20
21459;DHT22;10891;49.350;19.386;2022-08-03T12:43:11;27.70;80.20
21459;DHT22;10891;49.350;19.386;2022-08-03T12:45:38;27.80;81.00
21459;DHT22;10891;49.350;19.386;2022-08-03T12:48:09;27.70;79.30
21459;DHT22;10891;49.350;19.386;2022-08-03T12:50:37;27.90;81.30
21459;DHT22;10891;49.350;19.386;2022-08-03T12:53:07;27.90;77.60
21459;DHT22;10891;49.350;19.386;2022-08-03T12:55:37;27.90;76.20
21459;DHT22;10891;49.350;19.386;2022-08-03T12:58:05;27.90;74.10
21459;DHT22;10891;49.350;19.386;2022-08-03T13:00:35;27.90;75.00
21459;DHT22;10891;49.350;19.386;2022-08-03T13:03:04;28.00;78.50
21459;DHT22;10891;49.350;19.386;2022-08-03T13:05:42;27.90;79.20
21459;DHT22;10891;49.350;19.386;2022-08-03T13:08:17;27.90;79.50
21459;DHT22;10891;49.350;19.386;2022-08-03T13:10:45;27.90;80.10
21459;DHT22;10891;49.350;19.386;2022-08-03T13:13:12;27.90;78.70
21459;DHT22;10891;49.350;19.386;2022-08-03T13:15:40;27.90;80.20
21459;DHT22;10891;49.350;19.386;2022-08-03T13:18:07;28.00;79.20
21459;DHT22;10891;49.350;19.386;2022-08-03T13:20:36;27.90;77.40
21459;DHT22;10891;49.350;19.386;2022-08-03T13:23:03;28.10;79.90
21459;DHT22;10891;49.350;19.386;2022-08-03T13:25:30;28.20;78.60
21459;DHT22;10891;49.350;19.386;2022-08-03T13:27:57;28.10;77.60
21459;DHT22;10891;49.350;19.386;2022-08-03T13:30:23;28.00;79.60
21459;DHT22;10891;49.350;19.386;2022-08-03T13:32:50;28.00;81.40
21459;DHT22;10891;49.350;19.386;2022-08-03T13:35:17;28.00;80.30
21459;DHT22;10891;49.350;19.386;2022-08-03T13:37:45;27.90;77.60
21459;DHT22;10891;49.350;19.386;2022-08-03T13:40:12;28.10;77.50
21459;DHT22;10891;49.350;19.386;2022-08-03T13:42:40;28.10;78.10
21459;DHT22;10891;49.350;19.386;2022-08-03T13:45:08;28.10;77.10
21459;DHT22;10891;49.350;19.386;2022-08-03T13:47:35;27.80;77.70
21459;DHT22;10891;49.350;19.386;2022-08-03T13:50:03;27.80;79.40
21459;DHT22;10891;49.350;19.386;2022-08-03T13:52:31;27.60;78.40
21459;DHT22;10891;49.350;19.386;2022-08-03T13:55:01;27.90;81.90
21459;DHT22;10891;49.350;19.386;2022-08-03T13:57:28;28.00;75.20
21459;DHT22;10891;49.350;19.386;2022-08-03T13:59:56;28.10;74.50
21459;DHT22;10891;49.350;19.386;2022-08-03T14:02:23;28.10;76.40
21459;DHT22;10891;49.350;19.386;2022-08-03T14:04:49;28.10;75.80
21459;DHT22;10891;49.350;19.386;2022-08-03T14:07:16;28.00;77.60
21459;DHT22;10891;49.350;19.386;2022-08-03T14:09:44;28.00;78.90
21459;DHT22;10891;49.350;19.386;2022-08-03T14:12:12;27.90;80.00
21459;DHT22;10891;49.350;19.386;2022-08-03T14:14:39;28.00;77.00
21459;DHT22;10891;49.350;19.386;2022-08-03T14:17:06;27.70;79.50
21459;DHT22;10891;49.350;19.386;2022-08-03T14:19:33;27.50;80.70
21459;DHT22;10891;49.350;19.386;2022-08-03T14:22:00;27.60;80.20
21459;DHT22;10891;49.350;19.386;2022-08-03T14:24:27;27.50;79.70
21459;DHT22;10891;49.350;19.386;2022-08-03T14:26:54;27.40;80.90
21459;DHT22;10891;49.350;19.386;2022-08-03T14:29:22;27.10;82.00
21459;DHT22;10891;49.350;19.386;2022-08-03T14:31:49;27.20;84.30
21459;DHT22;10891;49.350;19.386;2022-08-03T14:34:16;26.90;83.90
21459;DHT22;10891;49.350;19.386;2022-08-03T14:36:43;26.80;84.20
21459;DHT22;10891;49.350;19.386;2022-08-03T14:39:11;26.70;84.70
21459;DHT22;10891;49.350;19.386;2022-08-03T14:41:38;26.80;85.00
21459;DHT22;10891;49.350;19.386;2022-08-03T14:44:05;26.70;85.80
21459;DHT22;10891;49.350;19.386;2022-08-03T14:46:33;26.60;84.60
21459;DHT22;10891;49.350;19.386;2022-08-03T14:49:00;26.60;84.00
21459;DHT22;10891;49.350;19.386;2022-08-03T14:51:27;26.60;84.70
21459;DHT22;10891;49.350;19.386;2022-08-03T14:53:54;26.70;83.50
21459;DHT22;10891;49.350;19.386;2022-08-03T14:56:21;26.50;84.10
21459;DHT22;10891;49.350;19.386;2022-08-03T14:58:48;26.60;86.20
21459;DHT22;10891;49.350;19.386;2022-08-03T15:01:15;26.80;84.90
21459;DHT22;10891;49.350;19.386;2022-08-03T15:03:43;26.70;84.60
21459;DHT22;10891;49.350;19.386;2022-08-03T15:06:11;26.70;85.40
21459;DHT22;10891;49.350;19.386;2022-08-03T15:08:38;26.80;83.80
21459;DHT22;10891;49.350;19.386;2022-08-03T15:11:05;26.80;85.00
21459;DHT22;10891;49.350;19.386;2022-08-03T15:13:32;26.40;84.60
21459;DHT22;10891;49.350;19.386;2022-08-03T15:15:59;26.20;85.40
21459;DHT22;10891;49.350;19.386;2022-08-03T15:18:26;26.40;86.70
21459;DHT22;10891;49.350;19.386;2022-08-03T15:20:54;26.30;86.60
21459;DHT22;10891;49.350;19.386;2022-08-03T15:23:24;26.60;87.10
21459;DHT22;10891;49.350;19.386;2022-08-03T15:25:51;26.40;85.70
21459;DHT22;10891;49.350;19.386;2022-08-03T15:28:18;26.30;87.80
21459;DHT22;10891;49.350;19.386;2022-08-03T15:30:45;26.70;88.50